JST131 YBCG-NZAA
Flight info
| Callsign | JST131 |
|---|---|
| Flight time | 2h 52m |
| Altitude | 37000 |
| Route | LAMSI N584 SIFRA DCT RIGMI A464 UPLAR |
| Aircraft | A320/M-SDE3FGHIRWY/LB1 |
Departure
| Time | 2026-05-05 09:24 |
|---|---|
| Airport | Gold Coast Airport (YBCG) |
Arrival
| Time | 2026-05-05 12:16 |
|---|---|
| Airport | Auckland International Airport (NZAA) |
| Time | Latitude | Longitude | Altitude | Speed | Heading |
|---|---|---|---|---|---|
| 2026-05-05 09:11 | -28.16634 | 153.51166 | 25 ft | 0 kts | 60° |
| 2026-05-05 09:17 | -28.16640 | 153.51156 | 10 ft | 2 kts | 60° |
| 2026-05-05 09:17 | -28.16646 | 153.51143 | 32 ft | 2 kts | 62° |
| 2026-05-05 09:17 | -28.16652 | 153.51130 | 26 ft | 2 kts | 64° |
| 2026-05-05 09:18 | -28.16658 | 153.51117 | 27 ft | 2 kts | 65° |
| 2026-05-05 09:18 | -28.16663 | 153.51104 | 30 ft | 2 kts | 67° |
| 2026-05-05 09:18 | -28.16668 | 153.51091 | 30 ft | 2 kts | 69° |
| 2026-05-05 09:18 | -28.16672 | 153.51077 | 30 ft | 2 kts | 80° |
| 2026-05-05 09:19 | -28.16672 | 153.51063 | 30 ft | 2 kts | 108° |
| 2026-05-05 09:19 | -28.16668 | 153.51049 | 28 ft | 2 kts | 116° |
| 2026-05-05 09:19 | -28.16662 | 153.51037 | 28 ft | 2 kts | 131° |
| 2026-05-05 09:19 | -28.16654 | 153.51028 | 29 ft | 0 kts | 144° |
| 2026-05-05 09:20 | -28.16655 | 153.51028 | 29 ft | 1 kts | 144° |
| 2026-05-05 09:20 | -28.16694 | 153.51056 | 30 ft | 15 kts | 149° |
| 2026-05-05 09:21 | -28.16800 | 153.51125 | 28 ft | 19 kts | 153° |
| 2026-05-05 09:21 | -28.16927 | 153.51200 | 28 ft | 21 kts | 152° |
| 2026-05-05 09:21 | -28.17055 | 153.51269 | 26 ft | 16 kts | 197° |
| 2026-05-05 09:21 | -28.17168 | 153.51252 | 26 ft | 17 kts | 158° |
| 2026-05-05 09:22 | -28.17277 | 153.51320 | 28 ft | 19 kts | 151° |
| 2026-05-05 09:22 | -28.17384 | 153.51381 | 27 ft | 13 kts | 170° |
| 2026-05-05 09:22 | -28.17445 | 153.51322 | 27 ft | 12 kts | 245° |
| 2026-05-05 09:22 | -28.17449 | 153.51228 | 27 ft | 13 kts | 298° |
| 2026-05-05 09:23 | -28.17372 | 153.51163 | 28 ft | 15 kts | 336° |
| 2026-05-05 09:23 | -28.17079 | 153.50981 | 27 ft | 90 kts | 330° |
| 2026-05-05 09:23 | -28.16342 | 153.50481 | 30 ft | 157 kts | 328° |
| 2026-05-05 09:23 | -28.15332 | 153.49784 | 515 ft | 177 kts | 327° |
| 2026-05-05 09:24 | -28.14249 | 153.49019 | 1307 ft | 184 kts | 336° |
| 2026-05-05 09:24 | -28.13034 | 153.48847 | 2157 ft | 180 kts | 15° |
| 2026-05-05 09:24 | -28.11946 | 153.49611 | 2598 ft | 196 kts | 55° |
| 2026-05-05 09:24 | -28.11465 | 153.51097 | 2941 ft | 214 kts | 93° |
| 2026-05-05 09:25 | -28.11853 | 153.52712 | 3587 ft | 213 kts | 126° |
| 2026-05-05 09:25 | -28.12852 | 153.53872 | 4537 ft | 202 kts | 150° |
| 2026-05-05 09:25 | -28.14113 | 153.54491 | 5434 ft | 197 kts | 168° |
| 2026-05-05 09:25 | -28.15476 | 153.54692 | 6185 ft | 200 kts | 180° |
| 2026-05-05 09:26 | -28.16971 | 153.54690 | 6352 ft | 237 kts | 179° |
| 2026-05-05 09:26 | -28.18685 | 153.55086 | 6580 ft | 265 kts | 155° |
| 2026-05-05 09:26 | -28.20127 | 153.56419 | 7277 ft | 273 kts | 128° |
| 2026-05-05 09:26 | -28.20919 | 153.58389 | 8089 ft | 280 kts | 102° |
| 2026-05-05 09:27 | -28.20910 | 153.60612 | 8910 ft | 287 kts | 82° |
| 2026-05-05 09:27 | -28.20548 | 153.62849 | 9762 ft | 290 kts | 84° |
| 2026-05-05 09:27 | -28.20509 | 153.65144 | 10461 ft | 297 kts | 97° |
| 2026-05-05 09:27 | -28.20938 | 153.67522 | 10703 ft | 320 kts | 109° |
| 2026-05-05 09:28 | -28.21774 | 153.69951 | 10943 ft | 341 kts | 115° |
| 2026-05-05 09:28 | -28.22833 | 153.72397 | 11509 ft | 349 kts | 117° |
| 2026-05-05 09:28 | -28.23971 | 153.74859 | 12150 ft | 357 kts | 118° |
| 2026-05-05 09:28 | -28.24744 | 153.76517 | 12515 ft | 362 kts | 118° |
| 2026-05-05 09:29 | -28.25925 | 153.79065 | 13161 ft | 368 kts | 117° |
| 2026-05-05 09:29 | -28.27115 | 153.81660 | 13774 ft | 374 kts | 117° |
| 2026-05-05 09:29 | -28.28320 | 153.84307 | 14329 ft | 380 kts | 117° |
| 2026-05-05 09:29 | -28.29935 | 153.87875 | 15043 ft | 388 kts | 116° |
| 2026-05-05 09:30 | -28.31173 | 153.90616 | 15578 ft | 393 kts | 116° |
| 2026-05-05 09:30 | -28.32423 | 153.93384 | 16186 ft | 396 kts | 116° |
| 2026-05-05 09:30 | -28.33277 | 153.95276 | 16532 ft | 400 kts | 116° |
| 2026-05-05 09:30 | -28.34971 | 153.99033 | 17185 ft | 408 kts | 116° |
| 2026-05-05 09:31 | -28.35832 | 154.00944 | 17514 ft | 412 kts | 116° |
| 2026-05-05 09:31 | -28.37161 | 154.03894 | 18004 ft | 417 kts | 116° |
| 2026-05-05 09:31 | -28.38491 | 154.06846 | 18428 ft | 424 kts | 116° |
| 2026-05-05 09:31 | -28.39838 | 154.09842 | 18889 ft | 427 kts | 116° |
| 2026-05-05 09:32 | -28.41177 | 154.12820 | 19344 ft | 431 kts | 116° |
| 2026-05-05 09:32 | -28.42545 | 154.15867 | 19803 ft | 435 kts | 117° |
| 2026-05-05 09:32 | -28.43973 | 154.18912 | 20254 ft | 439 kts | 122° |
| 2026-05-05 09:32 | -28.45745 | 154.21751 | 20705 ft | 442 kts | 129° |
| 2026-05-05 09:33 | -28.47662 | 154.24501 | 21160 ft | 446 kts | 129° |
| 2026-05-05 09:33 | -28.49590 | 154.27284 | 21628 ft | 449 kts | 129° |
| 2026-05-05 09:33 | -28.51529 | 154.30089 | 22080 ft | 453 kts | 129° |
| 2026-05-05 09:33 | -28.53486 | 154.32925 | 22543 ft | 457 kts | 130° |
| 2026-05-05 09:34 | -28.55454 | 154.35780 | 23002 ft | 461 kts | 130° |
| 2026-05-05 09:34 | -28.57434 | 154.38654 | 23522 ft | 463 kts | 130° |
| 2026-05-05 09:34 | -28.59428 | 154.41549 | 23902 ft | 467 kts | 130° |
| 2026-05-05 09:34 | -28.61440 | 154.44473 | 24247 ft | 472 kts | 130° |
| 2026-05-05 09:35 | -28.63472 | 154.47428 | 24580 ft | 476 kts | 130° |
| 2026-05-05 09:35 | -28.67588 | 154.53418 | 25253 ft | 485 kts | 130° |
| 2026-05-05 09:35 | -28.69676 | 154.56460 | 25582 ft | 489 kts | 130° |
| 2026-05-05 09:36 | -28.71777 | 154.59523 | 25903 ft | 493 kts | 129° |
| 2026-05-05 09:36 | -28.73897 | 154.62616 | 26175 ft | 499 kts | 129° |
| 2026-05-05 09:36 | -28.76039 | 154.65744 | 26481 ft | 503 kts | 129° |
| 2026-05-05 09:36 | -28.78194 | 154.68894 | 26824 ft | 505 kts | 130° |
| 2026-05-05 09:37 | -28.80359 | 154.72062 | 27134 ft | 509 kts | 130° |
| 2026-05-05 09:37 | -28.82512 | 154.75214 | 27415 ft | 512 kts | 130° |
| 2026-05-05 09:37 | -28.84709 | 154.78431 | 27703 ft | 516 kts | 130° |
| 2026-05-05 09:37 | -28.86920 | 154.81673 | 27980 ft | 520 kts | 130° |
| 2026-05-05 09:38 | -28.89146 | 154.84937 | 28254 ft | 523 kts | 130° |
| 2026-05-05 09:38 | -28.91385 | 154.88225 | 28514 ft | 526 kts | 130° |
| 2026-05-05 09:38 | -28.93637 | 154.91534 | 28782 ft | 529 kts | 130° |
| 2026-05-05 09:38 | -28.95902 | 154.94864 | 29034 ft | 533 kts | 130° |
| 2026-05-05 09:39 | -28.98183 | 154.98222 | 29286 ft | 536 kts | 130° |
| 2026-05-05 09:39 | -29.00471 | 155.01592 | 29554 ft | 538 kts | 130° |
| 2026-05-05 09:39 | -29.02770 | 155.04982 | 29790 ft | 541 kts | 130° |
| 2026-05-05 09:39 | -29.05082 | 155.08393 | 30015 ft | 544 kts | 130° |
| 2026-05-05 09:40 | -29.07406 | 155.11824 | 30241 ft | 547 kts | 130° |
| 2026-05-05 09:40 | -29.09739 | 155.15271 | 30477 ft | 549 kts | 130° |
| 2026-05-05 09:40 | -29.12073 | 155.18724 | 30826 ft | 549 kts | 130° |
| 2026-05-05 09:40 | -29.14411 | 155.22185 | 31039 ft | 551 kts | 130° |
| 2026-05-05 09:41 | -29.16764 | 155.25669 | 31278 ft | 553 kts | 130° |
| 2026-05-05 09:41 | -29.19114 | 155.29153 | 31578 ft | 553 kts | 129° |
| 2026-05-05 09:41 | -29.21459 | 155.32632 | 31877 ft | 553 kts | 129° |
| 2026-05-05 09:41 | -29.23812 | 155.36127 | 32176 ft | 553 kts | 129° |
| 2026-05-05 09:42 | -29.26157 | 155.39612 | 32470 ft | 553 kts | 129° |
| 2026-05-05 09:42 | -29.28509 | 155.43109 | 32759 ft | 553 kts | 129° |
| 2026-05-05 09:42 | -29.30851 | 155.46595 | 33044 ft | 553 kts | 128° |
| 2026-05-05 09:42 | -29.33198 | 155.50089 | 33315 ft | 553 kts | 128° |
| 2026-05-05 09:43 | -29.35548 | 155.53593 | 33597 ft | 553 kts | 128° |
| 2026-05-05 09:43 | -29.37892 | 155.57091 | 33851 ft | 553 kts | 128° |
| 2026-05-05 09:43 | -29.40236 | 155.60590 | 34108 ft | 553 kts | 128° |
| 2026-05-05 09:43 | -29.42576 | 155.64090 | 34337 ft | 553 kts | 128° |
| 2026-05-05 09:44 | -29.44915 | 155.67590 | 34560 ft | 553 kts | 128° |
| 2026-05-05 09:44 | -29.47254 | 155.71092 | 34786 ft | 553 kts | 128° |
| 2026-05-05 09:44 | -29.49598 | 155.74605 | 34898 ft | 556 kts | 128° |
| 2026-05-05 09:44 | -29.51946 | 155.78128 | 35090 ft | 556 kts | 129° |
| 2026-05-05 09:45 | -29.54262 | 155.81606 | 35293 ft | 556 kts | 129° |
| 2026-05-05 09:45 | -29.56608 | 155.85133 | 35485 ft | 556 kts | 129° |
| 2026-05-05 09:45 | -29.58984 | 155.88708 | 35673 ft | 556 kts | 129° |
| 2026-05-05 09:45 | -29.61329 | 155.92239 | 35854 ft | 556 kts | 129° |
| 2026-05-05 09:46 | -29.63640 | 155.95724 | 36041 ft | 555 kts | 129° |
| 2026-05-05 09:46 | -29.65979 | 155.99254 | 36228 ft | 555 kts | 129° |
| 2026-05-05 09:46 | -29.68323 | 156.02792 | 36399 ft | 555 kts | 129° |
| 2026-05-05 09:46 | -29.70693 | 156.06373 | 36564 ft | 555 kts | 129° |
| 2026-05-05 09:47 | -29.72999 | 156.09861 | 36715 ft | 555 kts | 129° |
| 2026-05-05 09:47 | -29.75337 | 156.13398 | 36869 ft | 555 kts | 129° |
| 2026-05-05 09:47 | -29.77673 | 156.16937 | 37028 ft | 555 kts | 130° |
| 2026-05-05 09:47 | -29.79869 | 156.20600 | 37154 ft | 557 kts | 121° |
| 2026-05-05 09:48 | -29.81654 | 156.24561 | 37270 ft | 558 kts | 113° |
| 2026-05-05 09:48 | -29.83216 | 156.28649 | 37423 ft | 557 kts | 114° |
| 2026-05-05 09:48 | -29.84788 | 156.32729 | 37562 ft | 557 kts | 114° |
| 2026-05-05 09:48 | -29.86368 | 156.36808 | 37699 ft | 558 kts | 114° |
| 2026-05-05 09:49 | -29.89539 | 156.44990 | 37884 ft | 560 kts | 114° |
| 2026-05-05 09:49 | -29.91123 | 156.49085 | 38003 ft | 560 kts | 114° |
| 2026-05-05 09:49 | -29.92709 | 156.53190 | 38117 ft | 560 kts | 114° |
| 2026-05-05 09:50 | -29.94290 | 156.57289 | 38225 ft | 560 kts | 114° |
| 2026-05-05 09:50 | -29.95868 | 156.61388 | 38360 ft | 559 kts | 114° |
| 2026-05-05 09:50 | -29.97443 | 156.65486 | 38469 ft | 559 kts | 114° |
| 2026-05-05 09:50 | -29.99017 | 156.69586 | 38568 ft | 559 kts | 114° |
| 2026-05-05 09:51 | -30.02161 | 156.77791 | 38756 ft | 559 kts | 114° |
| 2026-05-05 09:51 | -30.05300 | 156.86006 | 38938 ft | 558 kts | 114° |
| 2026-05-05 09:52 | -30.08418 | 156.94184 | 39112 ft | 556 kts | 115° |
| 2026-05-05 09:52 | -30.11528 | 157.02356 | 39116 ft | 555 kts | 115° |
| 2026-05-05 09:53 | -30.14629 | 157.10524 | 39116 ft | 555 kts | 115° |
| 2026-05-05 09:53 | -30.17725 | 157.18699 | 39116 ft | 555 kts | 115° |
| 2026-05-05 09:54 | -30.20814 | 157.26874 | 39116 ft | 555 kts | 115° |
| 2026-05-05 09:54 | -30.23896 | 157.35049 | 39110 ft | 554 kts | 115° |
| 2026-05-05 09:55 | -30.26947 | 157.43156 | 39109 ft | 553 kts | 115° |
| 2026-05-05 09:55 | -30.30009 | 157.51314 | 39104 ft | 553 kts | 115° |
| 2026-05-05 09:56 | -30.33082 | 157.59523 | 39109 ft | 552 kts | 115° |
| 2026-05-05 09:56 | -30.36111 | 157.67628 | 39108 ft | 552 kts | 115° |
| 2026-05-05 09:57 | -30.39153 | 157.75786 | 39114 ft | 552 kts | 115° |
| 2026-05-05 09:57 | -30.42190 | 157.83951 | 39113 ft | 552 kts | 115° |
| 2026-05-05 09:58 | -30.45222 | 157.92120 | 39120 ft | 552 kts | 115° |
| 2026-05-05 09:58 | -30.48248 | 158.00292 | 39121 ft | 552 kts | 115° |
| 2026-05-05 09:59 | -30.51269 | 158.08469 | 39122 ft | 552 kts | 115° |
| 2026-05-05 09:59 | -30.54288 | 158.16661 | 39122 ft | 552 kts | 115° |
| 2026-05-05 10:00 | -30.57299 | 158.24851 | 39127 ft | 552 kts | 115° |
| 2026-05-05 10:00 | -30.60308 | 158.33055 | 39128 ft | 552 kts | 115° |
| 2026-05-05 10:01 | -30.63311 | 158.41258 | 39128 ft | 552 kts | 115° |
| 2026-05-05 10:01 | -30.66308 | 158.49467 | 39128 ft | 552 kts | 115° |
| 2026-05-05 10:02 | -30.69299 | 158.57680 | 39127 ft | 552 kts | 115° |
| 2026-05-05 10:02 | -30.72286 | 158.65897 | 39127 ft | 552 kts | 115° |
| 2026-05-05 10:03 | -30.75267 | 158.74118 | 39126 ft | 552 kts | 115° |
| 2026-05-05 10:03 | -30.78244 | 158.82350 | 39124 ft | 552 kts | 115° |
| 2026-05-05 10:04 | -30.81193 | 158.90522 | 39125 ft | 552 kts | 115° |
| 2026-05-05 10:04 | -30.84156 | 158.98752 | 39125 ft | 552 kts | 115° |
| 2026-05-05 10:05 | -30.87114 | 159.06989 | 39148 ft | 551 kts | 115° |
| 2026-05-05 10:05 | -30.90069 | 159.15236 | 39121 ft | 552 kts | 115° |
| 2026-05-05 10:06 | -30.93021 | 159.23498 | 39124 ft | 552 kts | 115° |
| 2026-05-05 10:06 | -30.95965 | 159.31754 | 39121 ft | 552 kts | 115° |
| 2026-05-05 10:07 | -30.98904 | 159.40018 | 39127 ft | 552 kts | 115° |
| 2026-05-05 10:07 | -31.01839 | 159.48288 | 39125 ft | 552 kts | 115° |
| 2026-05-05 10:08 | -31.04769 | 159.56566 | 39128 ft | 553 kts | 115° |
| 2026-05-05 10:08 | -31.07696 | 159.64852 | 39125 ft | 553 kts | 115° |
| 2026-05-05 10:09 | -31.10620 | 159.73154 | 39133 ft | 553 kts | 115° |
| 2026-05-05 10:09 | -31.13518 | 159.81399 | 39132 ft | 553 kts | 115° |
| 2026-05-05 10:10 | -31.16449 | 159.89762 | 39132 ft | 553 kts | 115° |
| 2026-05-05 10:10 | -31.19336 | 159.98018 | 39130 ft | 553 kts | 115° |
| 2026-05-05 10:11 | -31.22238 | 160.06335 | 39139 ft | 553 kts | 115° |
| 2026-05-05 10:11 | -31.25134 | 160.14657 | 39139 ft | 553 kts | 115° |
| 2026-05-05 10:12 | -31.27983 | 160.22867 | 39145 ft | 553 kts | 115° |
| 2026-05-05 10:12 | -31.30870 | 160.31204 | 39147 ft | 553 kts | 115° |
| 2026-05-05 10:13 | -31.33749 | 160.39536 | 39149 ft | 552 kts | 115° |
| 2026-05-05 10:13 | -31.36621 | 160.47871 | 39156 ft | 553 kts | 115° |
| 2026-05-05 10:14 | -31.39490 | 160.56218 | 39150 ft | 553 kts | 116° |
| 2026-05-05 10:14 | -31.42350 | 160.64562 | 39152 ft | 552 kts | 116° |
| 2026-05-05 10:15 | -31.45204 | 160.72905 | 39146 ft | 552 kts | 116° |
| 2026-05-05 10:15 | -31.48050 | 160.81248 | 39148 ft | 551 kts | 116° |
| 2026-05-05 10:16 | -31.50873 | 160.89543 | 39146 ft | 551 kts | 116° |
| 2026-05-05 10:16 | -31.53702 | 160.97878 | 39154 ft | 550 kts | 116° |
| 2026-05-05 10:17 | -31.56524 | 161.06212 | 39153 ft | 550 kts | 116° |
| 2026-05-05 10:17 | -31.59339 | 161.14546 | 39152 ft | 550 kts | 116° |
| 2026-05-05 10:18 | -31.62146 | 161.22879 | 39164 ft | 549 kts | 116° |
| 2026-05-05 10:18 | -31.64946 | 161.31213 | 39163 ft | 549 kts | 116° |
| 2026-05-05 10:19 | -31.67269 | 161.38143 | 39160 ft | 548 kts | 116° |
| 2026-05-05 10:19 | -31.70527 | 161.47884 | 39157 ft | 548 kts | 116° |
| 2026-05-05 10:20 | -31.72836 | 161.54805 | 39156 ft | 548 kts | 116° |
| 2026-05-05 10:20 | -31.75601 | 161.63118 | 39165 ft | 544 kts | 116° |
| 2026-05-05 10:21 | -31.78352 | 161.71405 | 39162 ft | 545 kts | 116° |
| 2026-05-05 10:21 | -31.81105 | 161.79719 | 39162 ft | 545 kts | 116° |
| 2026-05-05 10:22 | -31.83849 | 161.88026 | 39195 ft | 545 kts | 116° |
| 2026-05-05 10:22 | -31.86584 | 161.96333 | 39166 ft | 544 kts | 116° |
| 2026-05-05 10:23 | -31.89312 | 162.04634 | 39167 ft | 544 kts | 116° |
| 2026-05-05 10:23 | -31.92016 | 162.12886 | 39166 ft | 543 kts | 116° |
| 2026-05-05 10:24 | -31.94726 | 162.21176 | 39163 ft | 543 kts | 116° |
| 2026-05-05 10:24 | -31.97431 | 162.29474 | 39175 ft | 542 kts | 116° |
| 2026-05-05 10:25 | -32.00131 | 162.37777 | 39177 ft | 542 kts | 116° |
| 2026-05-05 10:25 | -32.02822 | 162.46075 | 39176 ft | 542 kts | 116° |
| 2026-05-05 10:26 | -32.05510 | 162.54384 | 39181 ft | 542 kts | 116° |
| 2026-05-05 10:26 | -32.08190 | 162.62689 | 39192 ft | 542 kts | 116° |
| 2026-05-05 10:27 | -32.10864 | 162.70997 | 39191 ft | 542 kts | 116° |
| 2026-05-05 10:27 | -32.13535 | 162.79308 | 39190 ft | 542 kts | 116° |
| 2026-05-05 10:28 | -32.16205 | 162.87627 | 39192 ft | 542 kts | 116° |
| 2026-05-05 10:28 | -32.18866 | 162.95941 | 39197 ft | 541 kts | 116° |
| 2026-05-05 10:29 | -32.21898 | 163.03923 | 39197 ft | 532 kts | 126° |
| 2026-05-05 10:29 | -32.25474 | 163.11578 | 39202 ft | 532 kts | 126° |
| 2026-05-05 10:30 | -32.29045 | 163.19225 | 39200 ft | 531 kts | 126° |
| 2026-05-05 10:30 | -32.32598 | 163.26884 | 39204 ft | 531 kts | 126° |
| 2026-05-05 10:31 | -32.36138 | 163.34542 | 39204 ft | 529 kts | 126° |
| 2026-05-05 10:31 | -32.39662 | 163.42179 | 39209 ft | 529 kts | 126° |
| 2026-05-05 10:32 | -32.43188 | 163.49842 | 39208 ft | 530 kts | 126° |
| 2026-05-05 10:32 | -32.46703 | 163.57504 | 39213 ft | 530 kts | 126° |
| 2026-05-05 10:33 | -32.50214 | 163.65173 | 39214 ft | 530 kts | 126° |
| 2026-05-05 10:33 | -32.53709 | 163.72829 | 39217 ft | 527 kts | 126° |
| 2026-05-05 10:34 | -32.57194 | 163.80472 | 39221 ft | 528 kts | 126° |
| 2026-05-05 10:34 | -32.60677 | 163.88128 | 39220 ft | 528 kts | 126° |
| 2026-05-05 10:35 | -32.64159 | 163.95799 | 39235 ft | 528 kts | 125° |
| 2026-05-05 10:35 | -32.67601 | 164.03400 | 39235 ft | 525 kts | 125° |
| 2026-05-05 10:36 | -32.71040 | 164.11012 | 39215 ft | 522 kts | 125° |
| 2026-05-05 10:36 | -32.74459 | 164.18590 | 39226 ft | 521 kts | 125° |
| 2026-05-05 10:37 | -32.77890 | 164.26206 | 39230 ft | 525 kts | 125° |
| 2026-05-05 10:37 | -32.81325 | 164.33854 | 39233 ft | 524 kts | 125° |
| 2026-05-05 10:38 | -32.84745 | 164.41493 | 39235 ft | 521 kts | 126° |
| 2026-05-05 10:38 | -32.88153 | 164.49109 | 39237 ft | 522 kts | 125° |
| 2026-05-05 10:39 | -32.91559 | 164.56739 | 39236 ft | 522 kts | 125° |
| 2026-05-05 10:39 | -32.94958 | 164.64372 | 39240 ft | 522 kts | 125° |
| 2026-05-05 10:40 | -32.98353 | 164.72012 | 39248 ft | 522 kts | 125° |
| 2026-05-05 10:40 | -33.01718 | 164.79607 | 39266 ft | 517 kts | 125° |
| 2026-05-05 10:41 | -33.05070 | 164.87174 | 39246 ft | 517 kts | 125° |
| 2026-05-05 10:41 | -33.08423 | 164.94766 | 39253 ft | 517 kts | 125° |
| 2026-05-05 10:42 | -33.13438 | 165.06153 | 39249 ft | 517 kts | 125° |
| 2026-05-05 10:43 | -33.16778 | 165.13761 | 39252 ft | 518 kts | 125° |
| 2026-05-05 10:43 | -33.20119 | 165.21383 | 39252 ft | 518 kts | 125° |
| 2026-05-05 10:44 | -33.23456 | 165.29012 | 39252 ft | 518 kts | 125° |
| 2026-05-05 10:44 | -33.26793 | 165.36659 | 39253 ft | 519 kts | 125° |
| 2026-05-05 10:45 | -33.30122 | 165.44305 | 39255 ft | 519 kts | 125° |
| 2026-05-05 10:45 | -33.33446 | 165.51955 | 39259 ft | 518 kts | 124° |
| 2026-05-05 10:46 | -33.36764 | 165.59609 | 39257 ft | 518 kts | 124° |
| 2026-05-05 10:46 | -33.40042 | 165.67191 | 39263 ft | 515 kts | 124° |
| 2026-05-05 10:47 | -33.43333 | 165.74812 | 39259 ft | 516 kts | 124° |
| 2026-05-05 10:47 | -33.46615 | 165.82435 | 39263 ft | 511 kts | 124° |
| 2026-05-05 10:48 | -33.49861 | 165.89991 | 39265 ft | 510 kts | 124° |
| 2026-05-05 10:48 | -33.53113 | 165.97567 | 39265 ft | 511 kts | 124° |
| 2026-05-05 10:49 | -33.56357 | 166.05147 | 39270 ft | 511 kts | 124° |
| 2026-05-05 10:49 | -33.59600 | 166.12741 | 39269 ft | 512 kts | 124° |
| 2026-05-05 10:50 | -33.62817 | 166.20300 | 39269 ft | 504 kts | 124° |
| 2026-05-05 10:50 | -33.66009 | 166.27805 | 39278 ft | 506 kts | 124° |
| 2026-05-05 10:51 | -33.69210 | 166.35347 | 39277 ft | 506 kts | 124° |
| 2026-05-05 10:51 | -33.72401 | 166.42885 | 39292 ft | 506 kts | 124° |
| 2026-05-05 10:52 | -33.75569 | 166.50390 | 39286 ft | 502 kts | 124° |
| 2026-05-05 10:52 | -33.78697 | 166.57813 | 39283 ft | 494 kts | 123° |
| 2026-05-05 10:53 | -33.81814 | 166.65216 | 39286 ft | 497 kts | 123° |
| 2026-05-05 10:53 | -33.84927 | 166.72633 | 39287 ft | 497 kts | 123° |
| 2026-05-05 10:54 | -33.88018 | 166.80014 | 39288 ft | 497 kts | 123° |
| 2026-05-05 10:54 | -33.91126 | 166.87450 | 39300 ft | 497 kts | 123° |
| 2026-05-05 10:55 | -33.94193 | 166.94814 | 39291 ft | 490 kts | 123° |
| 2026-05-05 10:55 | -33.97256 | 167.02170 | 39285 ft | 492 kts | 123° |
| 2026-05-05 10:56 | -34.00317 | 167.09543 | 39297 ft | 492 kts | 123° |
| 2026-05-05 10:56 | -34.03372 | 167.16918 | 39300 ft | 492 kts | 123° |
| 2026-05-05 10:57 | -34.06426 | 167.24305 | 39308 ft | 490 kts | 123° |
| 2026-05-05 10:57 | -34.07928 | 167.27947 | 39290 ft | 479 kts | 122° |
| 2026-05-05 10:57 | -34.09397 | 167.31517 | 39296 ft | 473 kts | 122° |
| 2026-05-05 10:58 | -34.12344 | 167.38663 | 39302 ft | 478 kts | 122° |
| 2026-05-05 10:58 | -34.15306 | 167.45869 | 39302 ft | 479 kts | 122° |
| 2026-05-05 10:59 | -34.18259 | 167.53076 | 39303 ft | 479 kts | 122° |
| 2026-05-05 10:59 | -34.21208 | 167.60286 | 39316 ft | 479 kts | 122° |
| 2026-05-05 11:00 | -34.24161 | 167.67519 | 39311 ft | 480 kts | 122° |
| 2026-05-05 11:00 | -34.27086 | 167.74704 | 39312 ft | 479 kts | 122° |
| 2026-05-05 11:01 | -34.30027 | 167.81940 | 39312 ft | 479 kts | 122° |
| 2026-05-05 11:01 | -34.32962 | 167.89178 | 39312 ft | 479 kts | 122° |
| 2026-05-05 11:02 | -34.35892 | 167.96420 | 39329 ft | 479 kts | 121° |
| 2026-05-05 11:02 | -34.38810 | 168.03648 | 39317 ft | 477 kts | 121° |
| 2026-05-05 11:03 | -34.41722 | 168.10871 | 39323 ft | 477 kts | 121° |
| 2026-05-05 11:03 | -34.44621 | 168.18085 | 39320 ft | 476 kts | 121° |
| 2026-05-05 11:04 | -34.47518 | 168.25307 | 39321 ft | 477 kts | 121° |
| 2026-05-05 11:04 | -34.50412 | 168.32536 | 39340 ft | 477 kts | 121° |
| 2026-05-05 11:05 | -34.53274 | 168.39704 | 39328 ft | 474 kts | 121° |
| 2026-05-05 11:05 | -34.56147 | 168.46908 | 39328 ft | 475 kts | 121° |
| 2026-05-05 11:06 | -34.59016 | 168.54124 | 39327 ft | 475 kts | 121° |
| 2026-05-05 11:06 | -34.61882 | 168.61346 | 39330 ft | 475 kts | 121° |
| 2026-05-05 11:07 | -34.64743 | 168.68573 | 39330 ft | 475 kts | 121° |
| 2026-05-05 11:07 | -34.67601 | 168.75805 | 39344 ft | 475 kts | 120° |
| 2026-05-05 11:08 | -34.70452 | 168.83038 | 39339 ft | 475 kts | 120° |
| 2026-05-05 11:08 | -34.73301 | 168.90279 | 39336 ft | 474 kts | 120° |
| 2026-05-05 11:09 | -34.76141 | 168.97514 | 39339 ft | 474 kts | 120° |
| 2026-05-05 11:09 | -34.78975 | 169.04750 | 39341 ft | 474 kts | 120° |
| 2026-05-05 11:10 | -34.81802 | 169.11984 | 39338 ft | 473 kts | 120° |
| 2026-05-05 11:10 | -34.84148 | 169.18000 | 39339 ft | 473 kts | 120° |
| 2026-05-05 11:11 | -34.86964 | 169.25232 | 39337 ft | 473 kts | 120° |
| 2026-05-05 11:11 | -34.89772 | 169.32464 | 39338 ft | 472 kts | 120° |
| 2026-05-05 11:12 | -34.92575 | 169.39696 | 39334 ft | 472 kts | 120° |
| 2026-05-05 11:12 | -34.95376 | 169.46938 | 39342 ft | 472 kts | 120° |
| 2026-05-05 11:13 | -34.98168 | 169.54176 | 39341 ft | 472 kts | 120° |
| 2026-05-05 11:13 | -35.00955 | 169.61416 | 39343 ft | 472 kts | 120° |
| 2026-05-05 11:14 | -35.03737 | 169.68659 | 39341 ft | 471 kts | 119° |
| 2026-05-05 11:14 | -35.06515 | 169.75907 | 39344 ft | 472 kts | 119° |
| 2026-05-05 11:15 | -35.09272 | 169.83113 | 39358 ft | 470 kts | 119° |
| 2026-05-05 11:15 | -35.12024 | 169.90331 | 39356 ft | 469 kts | 119° |
| 2026-05-05 11:16 | -35.14778 | 169.97563 | 39357 ft | 470 kts | 118° |
| 2026-05-05 11:16 | -35.17526 | 170.04799 | 39358 ft | 469 kts | 118° |
| 2026-05-05 11:17 | -35.20273 | 170.12047 | 39357 ft | 470 kts | 118° |
| 2026-05-05 11:17 | -35.23013 | 170.19291 | 39365 ft | 468 kts | 118° |
| 2026-05-05 11:18 | -35.25736 | 170.26511 | 39360 ft | 467 kts | 118° |
| 2026-05-05 11:18 | -35.28368 | 170.33501 | 39369 ft | 467 kts | 118° |
| 2026-05-05 11:19 | -35.31083 | 170.40727 | 39366 ft | 467 kts | 118° |
| 2026-05-05 11:19 | -35.33794 | 170.47962 | 39366 ft | 468 kts | 118° |
| 2026-05-05 11:20 | -35.36502 | 170.55201 | 39379 ft | 467 kts | 118° |
| 2026-05-05 11:20 | -35.39205 | 170.62446 | 39390 ft | 467 kts | 118° |
| 2026-05-05 11:21 | -35.41903 | 170.69695 | 39378 ft | 467 kts | 118° |
| 2026-05-05 11:21 | -35.44600 | 170.76951 | 39371 ft | 467 kts | 118° |
| 2026-05-05 11:22 | -35.47289 | 170.84197 | 39369 ft | 465 kts | 118° |
| 2026-05-05 11:22 | -35.48606 | 170.87758 | 39373 ft | 451 kts | 118° |
| 2026-05-05 11:22 | -35.49881 | 170.91211 | 39387 ft | 438 kts | 118° |
| 2026-05-05 11:22 | -35.51119 | 170.94565 | 39379 ft | 425 kts | 118° |
| 2026-05-05 11:23 | -35.52321 | 170.97822 | 39381 ft | 413 kts | 118° |
| 2026-05-05 11:23 | -35.53488 | 171.00988 | 39379 ft | 401 kts | 118° |
| 2026-05-05 11:23 | -35.54543 | 171.04145 | 39125 ft | 401 kts | 111° |
| 2026-05-05 11:23 | -35.55134 | 171.07532 | 38387 ft | 414 kts | 94° |
| 2026-05-05 11:24 | -35.54736 | 171.11085 | 37313 ft | 432 kts | 68° |
| 2026-05-05 11:24 | -35.53078 | 171.14198 | 36384 ft | 442 kts | 40° |
| 2026-05-05 11:24 | -35.50474 | 171.16120 | 35837 ft | 436 kts | 13° |
| 2026-05-05 11:24 | -35.47529 | 171.16465 | 35534 ft | 420 kts | 347° |
| 2026-05-05 11:25 | -35.44875 | 171.15261 | 35310 ft | 402 kts | 321° |
| 2026-05-05 11:25 | -35.42536 | 171.13514 | 35443 ft | 389 kts | 332° |
| 2026-05-05 11:25 | -35.39966 | 171.12547 | 35490 ft | 385 kts | 348° |
| 2026-05-05 11:26 | -35.36747 | 171.12251 | 35353 ft | 385 kts | 358° |
| 2026-05-05 11:26 | -35.34304 | 171.12426 | 34957 ft | 392 kts | 3° |
| 2026-05-05 11:26 | -35.31574 | 171.12830 | 34544 ft | 397 kts | 2° |
| 2026-05-05 11:26 | -35.28837 | 171.12679 | 34083 ft | 393 kts | 343° |
| 2026-05-05 11:27 | -35.26139 | 171.12052 | 33612 ft | 399 kts | 351° |
| 2026-05-05 11:27 | -35.23389 | 171.12133 | 32901 ft | 406 kts | 8° |
| 2026-05-05 11:27 | -35.20675 | 171.13157 | 31724 ft | 414 kts | 25° |
| 2026-05-05 11:27 | -35.18227 | 171.15069 | 30210 ft | 423 kts | 40° |
| 2026-05-05 11:28 | -35.16213 | 171.17731 | 28584 ft | 425 kts | 57° |
| 2026-05-05 11:28 | -35.14863 | 171.20740 | 29206 ft | 390 kts | 66° |
| 2026-05-05 11:28 | -35.13531 | 171.23523 | 29465 ft | 374 kts | 51° |
| 2026-05-05 11:28 | -35.11841 | 171.25918 | 28804 ft | 373 kts | 46° |
| 2026-05-05 11:29 | -35.10056 | 171.28256 | 27585 ft | 382 kts | 51° |
| 2026-05-05 11:29 | -35.08728 | 171.31005 | 27617 ft | 366 kts | 67° |
| 2026-05-05 11:29 | -35.07835 | 171.33756 | 28582 ft | 332 kts | 69° |
| 2026-05-05 11:29 | -35.07073 | 171.36340 | 29035 ft | 318 kts | 79° |
| 2026-05-05 11:30 | -35.06745 | 171.38998 | 29003 ft | 318 kts | 91° |
| 2026-05-05 11:30 | -35.06931 | 171.41690 | 28754 ft | 322 kts | 104° |
| 2026-05-05 11:30 | -35.07511 | 171.44342 | 28598 ft | 325 kts | 110° |
| 2026-05-05 11:30 | -35.08155 | 171.47045 | 28211 ft | 339 kts | 103° |
| 2026-05-05 11:31 | -35.08254 | 171.49959 | 27854 ft | 352 kts | 82° |
| 2026-05-05 11:31 | -35.08005 | 171.52959 | 27500 ft | 359 kts | 96° |
| 2026-05-05 11:31 | -35.08541 | 171.55905 | 27067 ft | 356 kts | 115° |
| 2026-05-05 11:31 | -35.09554 | 171.58675 | 26156 ft | 361 kts | 117° |
| 2026-05-05 11:32 | -35.10644 | 171.61520 | 25366 ft | 376 kts | 117° |
| 2026-05-05 11:32 | -35.11761 | 171.64433 | 24482 ft | 382 kts | 117° |
| 2026-05-05 11:32 | -35.12908 | 171.67411 | 23146 ft | 390 kts | 117° |
| 2026-05-05 11:32 | -35.14068 | 171.70359 | 22213 ft | 380 kts | 117° |
| 2026-05-05 11:33 | -35.15224 | 171.73231 | 21119 ft | 374 kts | 117° |
| 2026-05-05 11:33 | -35.16407 | 171.76046 | 20018 ft | 370 kts | 117° |
| 2026-05-05 11:33 | -35.17627 | 171.78789 | 19115 ft | 362 kts | 117° |
| 2026-05-05 11:33 | -35.18839 | 171.81428 | 18258 ft | 350 kts | 117° |
| 2026-05-05 11:34 | -35.19986 | 171.83973 | 17211 ft | 344 kts | 115° |
| 2026-05-05 11:34 | -35.21135 | 171.86508 | 16223 ft | 338 kts | 117° |
| 2026-05-05 11:34 | -35.22288 | 171.89103 | 15535 ft | 353 kts | 116° |
| 2026-05-05 11:34 | -35.23479 | 171.91707 | 15294 ft | 351 kts | 117° |
| 2026-05-05 11:35 | -35.24691 | 171.94209 | 15141 ft | 332 kts | 119° |
| 2026-05-05 11:35 | -35.25872 | 171.96547 | 14743 ft | 318 kts | 119° |
| 2026-05-05 11:35 | -35.27045 | 171.98821 | 14397 ft | 317 kts | 119° |
| 2026-05-05 11:35 | -35.28231 | 172.01103 | 14155 ft | 318 kts | 119° |
| 2026-05-05 11:36 | -35.29414 | 172.03374 | 13886 ft | 315 kts | 120° |
| 2026-05-05 11:36 | -35.30586 | 172.05625 | 13625 ft | 313 kts | 120° |
| 2026-05-05 11:36 | -35.31756 | 172.07872 | 13365 ft | 312 kts | 120° |
| 2026-05-05 11:36 | -35.32918 | 172.10105 | 13092 ft | 310 kts | 120° |
| 2026-05-05 11:37 | -35.33186 | 172.10620 | 13001 ft | 310 kts | 120° |
| 2026-05-05 11:37 | -35.34285 | 172.12734 | 12494 ft | 305 kts | 120° |
| 2026-05-05 11:37 | -35.35418 | 172.14916 | 11760 ft | 301 kts | 120° |
| 2026-05-05 11:37 | -35.36531 | 172.17061 | 11074 ft | 296 kts | 120° |
| 2026-05-05 11:38 | -35.37635 | 172.19192 | 10730 ft | 297 kts | 120° |
| 2026-05-05 11:38 | -35.38747 | 172.21338 | 10677 ft | 299 kts | 120° |
| 2026-05-05 11:38 | -35.39861 | 172.23490 | 10670 ft | 300 kts | 120° |
| 2026-05-05 11:38 | -35.40977 | 172.25645 | 10670 ft | 298 kts | 120° |
| 2026-05-05 11:39 | -35.42093 | 172.27803 | 10677 ft | 300 kts | 119° |
| 2026-05-05 11:39 | -35.43207 | 172.29958 | 10671 ft | 300 kts | 120° |
| 2026-05-05 11:39 | -35.44320 | 172.32112 | 10684 ft | 299 kts | 119° |
| 2026-05-05 11:39 | -35.45429 | 172.34261 | 10678 ft | 299 kts | 120° |
| 2026-05-05 11:40 | -35.46546 | 172.36424 | 10680 ft | 300 kts | 119° |
| 2026-05-05 11:40 | -35.47662 | 172.38588 | 10679 ft | 300 kts | 119° |
| 2026-05-05 11:40 | -35.48776 | 172.40749 | 10683 ft | 300 kts | 119° |
| 2026-05-05 11:40 | -35.49893 | 172.42924 | 10679 ft | 307 kts | 120° |
| 2026-05-05 11:41 | -35.51055 | 172.45187 | 10687 ft | 319 kts | 120° |
| 2026-05-05 11:41 | -35.52247 | 172.47503 | 10677 ft | 322 kts | 120° |
| 2026-05-05 11:41 | -35.53445 | 172.49830 | 10678 ft | 322 kts | 120° |
| 2026-05-05 11:41 | -35.54642 | 172.52157 | 10681 ft | 323 kts | 120° |
| 2026-05-05 11:42 | -35.55842 | 172.54491 | 10684 ft | 323 kts | 120° |
| 2026-05-05 11:42 | -35.57036 | 172.56817 | 10676 ft | 322 kts | 120° |
| 2026-05-05 11:42 | -35.58232 | 172.59149 | 10672 ft | 323 kts | 120° |
| 2026-05-05 11:42 | -35.59414 | 172.61454 | 10685 ft | 323 kts | 120° |
| 2026-05-05 11:43 | -35.60609 | 172.63787 | 10682 ft | 323 kts | 120° |
| 2026-05-05 11:43 | -35.61802 | 172.66119 | 10690 ft | 322 kts | 120° |
| 2026-05-05 11:43 | -35.62995 | 172.68451 | 10680 ft | 323 kts | 120° |
| 2026-05-05 11:43 | -35.64189 | 172.70786 | 10678 ft | 322 kts | 120° |
| 2026-05-05 11:44 | -35.65381 | 172.73121 | 10692 ft | 323 kts | 120° |
| 2026-05-05 11:44 | -35.66574 | 172.75458 | 10692 ft | 323 kts | 120° |
| 2026-05-05 11:44 | -35.67766 | 172.77795 | 10681 ft | 323 kts | 120° |
| 2026-05-05 11:44 | -35.68959 | 172.80134 | 10687 ft | 323 kts | 120° |
| 2026-05-05 11:45 | -35.70150 | 172.82474 | 10677 ft | 323 kts | 120° |
| 2026-05-05 11:45 | -35.71341 | 172.84813 | 10680 ft | 322 kts | 120° |
| 2026-05-05 11:45 | -35.72533 | 172.87157 | 10685 ft | 322 kts | 120° |
| 2026-05-05 11:45 | -35.73722 | 172.89495 | 10695 ft | 322 kts | 120° |
| 2026-05-05 11:46 | -35.74911 | 172.91836 | 10698 ft | 323 kts | 120° |
| 2026-05-05 11:46 | -35.76099 | 172.94176 | 10688 ft | 322 kts | 120° |
| 2026-05-05 11:46 | -35.77286 | 172.96517 | 10693 ft | 322 kts | 120° |
| 2026-05-05 11:46 | -35.78473 | 172.98858 | 10689 ft | 322 kts | 120° |
| 2026-05-05 11:47 | -35.79660 | 173.01201 | 10685 ft | 323 kts | 120° |
| 2026-05-05 11:47 | -35.80847 | 173.03547 | 10695 ft | 323 kts | 120° |
| 2026-05-05 11:47 | -35.82037 | 173.05897 | 10686 ft | 323 kts | 120° |
| 2026-05-05 11:47 | -35.83223 | 173.08243 | 10681 ft | 323 kts | 120° |
| 2026-05-05 11:48 | -35.85596 | 173.12941 | 10693 ft | 322 kts | 120° |
| 2026-05-05 11:48 | -35.86779 | 173.15286 | 10698 ft | 322 kts | 120° |
| 2026-05-05 11:48 | -35.87959 | 173.17628 | 10700 ft | 321 kts | 120° |
| 2026-05-05 11:49 | -35.89138 | 173.19968 | 10691 ft | 322 kts | 120° |
| 2026-05-05 11:49 | -35.90302 | 173.22280 | 10693 ft | 321 kts | 120° |
| 2026-05-05 11:49 | -35.91481 | 173.24623 | 10690 ft | 322 kts | 120° |
| 2026-05-05 11:49 | -35.92661 | 173.26969 | 10688 ft | 322 kts | 120° |
| 2026-05-05 11:50 | -35.93839 | 173.29313 | 10697 ft | 322 kts | 120° |
| 2026-05-05 11:50 | -35.95017 | 173.31659 | 10681 ft | 322 kts | 120° |
| 2026-05-05 11:50 | -35.96194 | 173.34005 | 10697 ft | 322 kts | 120° |
| 2026-05-05 11:50 | -35.97371 | 173.36352 | 10695 ft | 322 kts | 120° |
| 2026-05-05 11:51 | -35.98547 | 173.38699 | 10689 ft | 321 kts | 120° |
| 2026-05-05 11:51 | -35.99722 | 173.41046 | 10698 ft | 321 kts | 120° |
| 2026-05-05 11:51 | -36.00898 | 173.43396 | 10696 ft | 322 kts | 120° |
| 2026-05-05 11:51 | -36.02075 | 173.45749 | 10695 ft | 321 kts | 120° |
| 2026-05-05 11:52 | -36.03250 | 173.48100 | 10695 ft | 321 kts | 120° |
| 2026-05-05 11:52 | -36.04423 | 173.50450 | 10700 ft | 321 kts | 120° |
| 2026-05-05 11:52 | -36.05596 | 173.52799 | 10700 ft | 321 kts | 120° |
| 2026-05-05 11:52 | -36.06768 | 173.55150 | 10692 ft | 321 kts | 120° |
| 2026-05-05 11:53 | -36.07940 | 173.57502 | 10696 ft | 321 kts | 120° |
| 2026-05-05 11:53 | -36.09111 | 173.59854 | 10700 ft | 321 kts | 120° |
| 2026-05-05 11:53 | -36.10283 | 173.62209 | 10698 ft | 322 kts | 120° |
| 2026-05-05 11:53 | -36.11454 | 173.64564 | 10703 ft | 321 kts | 120° |
| 2026-05-05 11:54 | -36.12627 | 173.66923 | 10693 ft | 322 kts | 120° |
| 2026-05-05 11:54 | -36.13796 | 173.69277 | 10708 ft | 321 kts | 120° |
| 2026-05-05 11:54 | -36.14966 | 173.71633 | 10694 ft | 322 kts | 120° |
| 2026-05-05 11:54 | -36.16137 | 173.73995 | 10694 ft | 322 kts | 120° |
| 2026-05-05 11:55 | -36.17306 | 173.76353 | 10696 ft | 321 kts | 120° |
| 2026-05-05 11:55 | -36.18473 | 173.78711 | 10697 ft | 321 kts | 120° |
| 2026-05-05 11:55 | -36.19641 | 173.81070 | 10692 ft | 321 kts | 120° |
| 2026-05-05 11:55 | -36.20808 | 173.83430 | 10697 ft | 322 kts | 120° |
| 2026-05-05 11:56 | -36.21978 | 173.85798 | 10705 ft | 322 kts | 120° |
| 2026-05-05 11:56 | -36.23146 | 173.88162 | 10705 ft | 322 kts | 120° |
| 2026-05-05 11:56 | -36.24314 | 173.90528 | 10711 ft | 322 kts | 120° |
| 2026-05-05 11:56 | -36.25479 | 173.92890 | 10700 ft | 320 kts | 120° |
| 2026-05-05 11:57 | -36.26640 | 173.95246 | 10702 ft | 321 kts | 119° |
| 2026-05-05 11:57 | -36.27802 | 173.97605 | 10699 ft | 321 kts | 119° |
| 2026-05-05 11:57 | -36.28963 | 173.99964 | 10707 ft | 321 kts | 119° |
| 2026-05-05 11:57 | -36.30125 | 174.02327 | 10704 ft | 321 kts | 119° |
| 2026-05-05 11:58 | -36.31285 | 174.04687 | 10711 ft | 321 kts | 119° |
| 2026-05-05 11:58 | -36.32445 | 174.07048 | 10712 ft | 321 kts | 119° |
| 2026-05-05 11:58 | -36.33604 | 174.09411 | 10705 ft | 321 kts | 119° |
| 2026-05-05 11:58 | -36.34374 | 174.10980 | 10712 ft | 321 kts | 119° |
| 2026-05-05 11:59 | -36.35906 | 174.14106 | 10707 ft | 321 kts | 120° |
| 2026-05-05 11:59 | -36.37069 | 174.16469 | 10700 ft | 321 kts | 120° |
| 2026-05-05 11:59 | -36.38231 | 174.18831 | 10709 ft | 321 kts | 120° |
| 2026-05-05 11:59 | -36.39391 | 174.21195 | 10701 ft | 321 kts | 120° |
| 2026-05-05 12:00 | -36.40550 | 174.23564 | 10708 ft | 321 kts | 120° |
| 2026-05-05 12:00 | -36.41705 | 174.25932 | 10713 ft | 321 kts | 119° |
| 2026-05-05 12:00 | -36.42861 | 174.28300 | 10715 ft | 321 kts | 120° |
| 2026-05-05 12:00 | -36.43643 | 174.29905 | 10707 ft | 322 kts | 120° |
| 2026-05-05 12:01 | -36.44802 | 174.32282 | 10713 ft | 322 kts | 120° |
| 2026-05-05 12:01 | -36.45960 | 174.34661 | 10706 ft | 322 kts | 120° |
| 2026-05-05 12:01 | -36.47117 | 174.37039 | 10711 ft | 322 kts | 120° |
| 2026-05-05 12:01 | -36.48273 | 174.39419 | 10706 ft | 322 kts | 120° |
| 2026-05-05 12:02 | -36.49428 | 174.41796 | 10700 ft | 320 kts | 120° |
| 2026-05-05 12:02 | -36.50570 | 174.44147 | 10383 ft | 316 kts | 120° |
| 2026-05-05 12:02 | -36.51712 | 174.46505 | 10287 ft | 320 kts | 120° |
| 2026-05-05 12:02 | -36.52848 | 174.48849 | 10175 ft | 318 kts | 120° |
| 2026-05-05 12:03 | -36.53961 | 174.51144 | 10065 ft | 300 kts | 120° |
| 2026-05-05 12:03 | -36.55015 | 174.53318 | 10016 ft | 292 kts | 119° |
| 2026-05-05 12:03 | -36.56062 | 174.55483 | 9885 ft | 292 kts | 119° |
| 2026-05-05 12:03 | -36.57106 | 174.57643 | 9755 ft | 291 kts | 119° |
| 2026-05-05 12:04 | -36.58146 | 174.59797 | 9622 ft | 290 kts | 119° |
| 2026-05-05 12:04 | -36.59185 | 174.61948 | 9496 ft | 290 kts | 119° |
| 2026-05-05 12:04 | -36.60222 | 174.64096 | 9368 ft | 290 kts | 119° |
| 2026-05-05 12:04 | -36.61257 | 174.66240 | 9239 ft | 288 kts | 119° |
| 2026-05-05 12:05 | -36.62293 | 174.68385 | 9109 ft | 289 kts | 119° |
| 2026-05-05 12:05 | -36.63326 | 174.70526 | 8984 ft | 290 kts | 118° |
| 2026-05-05 12:05 | -36.64335 | 174.72687 | 8853 ft | 288 kts | 115° |
| 2026-05-05 12:05 | -36.65103 | 174.74979 | 8710 ft | 285 kts | 105° |
| 2026-05-05 12:06 | -36.65649 | 174.77333 | 8366 ft | 279 kts | 103° |
| 2026-05-05 12:06 | -36.66179 | 174.79603 | 8009 ft | 266 kts | 104° |
| 2026-05-05 12:06 | -36.66690 | 174.81742 | 7676 ft | 254 kts | 107° |
| 2026-05-05 12:06 | -36.67618 | 174.83768 | 7331 ft | 287 kts | 130° |
| 2026-05-05 12:07 | -36.69193 | 174.85353 | 7060 ft | 290 kts | 143° |
| 2026-05-05 12:07 | -36.70813 | 174.86752 | 6931 ft | 281 kts | 143° |
| 2026-05-05 12:07 | -36.72418 | 174.88136 | 6466 ft | 281 kts | 143° |
| 2026-05-05 12:07 | -36.73985 | 174.89500 | 6242 ft | 272 kts | 143° |
| 2026-05-05 12:08 | -36.75502 | 174.90831 | 6147 ft | 259 kts | 142° |
| 2026-05-05 12:08 | -36.76915 | 174.92076 | 5994 ft | 238 kts | 142° |
| 2026-05-05 12:08 | -36.78216 | 174.93225 | 5721 ft | 221 kts | 142° |
| 2026-05-05 12:08 | -36.79440 | 174.94310 | 5085 ft | 215 kts | 141° |
| 2026-05-05 12:09 | -36.80657 | 174.95393 | 4467 ft | 212 kts | 141° |
| 2026-05-05 12:09 | -36.81879 | 174.96480 | 4236 ft | 217 kts | 141° |
| 2026-05-05 12:09 | -36.83105 | 174.97569 | 4083 ft | 215 kts | 141° |
| 2026-05-05 12:09 | -36.84323 | 174.98651 | 4058 ft | 216 kts | 141° |
| 2026-05-05 12:10 | -36.85546 | 174.99738 | 4055 ft | 216 kts | 141° |
| 2026-05-05 12:10 | -36.86840 | 175.00666 | 4062 ft | 220 kts | 154° |
| 2026-05-05 12:10 | -36.88307 | 175.01297 | 4064 ft | 221 kts | 158° |
| 2026-05-05 12:10 | -36.89763 | 175.01914 | 3925 ft | 220 kts | 158° |
| 2026-05-05 12:11 | -36.91170 | 175.02517 | 3545 ft | 215 kts | 158° |
| 2026-05-05 12:11 | -36.92651 | 175.02895 | 3342 ft | 223 kts | 183° |
| 2026-05-05 12:11 | -36.94055 | 175.02132 | 3246 ft | 221 kts | 222° |
| 2026-05-05 12:11 | -36.94962 | 175.00691 | 3143 ft | 202 kts | 244° |
| 2026-05-05 12:12 | -36.95536 | 174.99120 | 3052 ft | 202 kts | 252° |
| 2026-05-05 12:12 | -36.96010 | 174.97479 | 2862 ft | 197 kts | 255° |
| 2026-05-05 12:12 | -36.96447 | 174.95891 | 2585 ft | 190 kts | 254° |
| 2026-05-05 12:12 | -36.96873 | 174.94353 | 2339 ft | 182 kts | 254° |
| 2026-05-05 12:13 | -36.97272 | 174.92908 | 2086 ft | 170 kts | 254° |
| 2026-05-05 12:13 | -36.97645 | 174.91552 | 1857 ft | 160 kts | 253° |
| 2026-05-05 12:13 | -36.98001 | 174.90262 | 1644 ft | 153 kts | 253° |
| 2026-05-05 12:13 | -36.98340 | 174.89028 | 1442 ft | 148 kts | 253° |
| 2026-05-05 12:14 | -36.98672 | 174.87826 | 1250 ft | 144 kts | 253° |
| 2026-05-05 12:14 | -36.98997 | 174.86646 | 1059 ft | 145 kts | 252° |
| 2026-05-05 12:14 | -36.99321 | 174.85468 | 870 ft | 141 kts | 251° |
| 2026-05-05 12:14 | -36.99634 | 174.84333 | 681 ft | 135 kts | 251° |
| 2026-05-05 12:15 | -36.99937 | 174.83233 | 496 ft | 133 kts | 251° |
| 2026-05-05 12:15 | -37.00240 | 174.82147 | 320 ft | 132 kts | 250° |
| 2026-05-05 12:15 | -37.00541 | 174.81071 | 125 ft | 131 kts | 252° |
| 2026-05-05 12:15 | -37.00821 | 174.80023 | 28 ft | 119 kts | 251° |
| 2026-05-05 12:16 | -37.01012 | 174.79305 | 26 ft | 61 kts | 251° |
| 2026-05-05 12:16 | -37.01069 | 174.78949 | 26 ft | 36 kts | 275° |
| 2026-05-05 12:16 | -37.01034 | 174.78714 | 28 ft | 23 kts | 282° |
| 2026-05-05 12:16 | -37.00954 | 174.78563 | 29 ft | 22 kts | 343° |
| 2026-05-05 12:17 | -37.00887 | 174.78455 | 27 ft | 17 kts | 268° |
| 2026-05-05 12:17 | -37.00807 | 174.78378 | 25 ft | 17 kts | 0° |
| 2026-05-05 12:17 | -37.00726 | 174.78347 | 26 ft | 9 kts | 283° |
| 2026-05-05 12:17 | -37.00702 | 174.78288 | 25 ft | 0 kts | 298° |